WetterOnline ( https://www.wetteronline.de )

Wetter aktuell Görlitz

Aktuelles Wetter: Görlitz (240m)

6-stündlich | Neueste Meldungen
Ortszeit Temperatur Wetter
So, 21.04. 14:00 4.9° C bedeckt
So, 21.04. 8:00 -0.2° C Nebel
So, 21.04. 2:00 -0.6° C Nebel
Sa, 20.04. 20:00 3.2° C bedeckt
Sa, 20.04. 14:00 4.0° C leichter Regen
Sa, 20.04. 8:00 5.2° C Sprühregen
Sa, 20.04. 2:00 3.9° C leichter Regen
Fr, 19.04. 20:00 5.6° C bewölkt
Ortszeit Temperatur Wetter
So, 21.04. 19:30 4.0° C wolkig
So, 21.04. 19:20 4.0° C wolkig
So, 21.04. 19:10 4.0° C wolkig
So, 21.04. 19:00 4.5° C bewölkt
So, 21.04. 18:50 4.5° C bewölkt
So, 21.04. 18:40 4.7° C bedeckt
So, 21.04. 18:30 5.1° C bedeckt
So, 21.04. 18:00 5.6° C bewölkt
So, 21.04. 17:30 5.4° C bewölkt
So, 21.04. 17:00 5.6° C bedeckt
So, 21.04. 16:30 5.1° C bedeckt
Ortszeit Relative Feuchte Sichtweite
So, 21.04. 14:00 60% >70 km
So, 21.04. 8:00 94% 15 km
So, 21.04. 2:00 96% 10 km
Sa, 20.04. 20:00 87% 50 km
Sa, 20.04. 14:00 91% 30 km
Sa, 20.04. 8:00 95% 19 km
Sa, 20.04. 2:00 91% 17 km
Fr, 19.04. 20:00 85% >70 km
Ortszeit Relative Feuchte Sichtweite
So, 21.04. 19:30 67% 55 km
So, 21.04. 19:20 67% -
So, 21.04. 19:10 66% -
So, 21.04. 19:00 61% >70 km
So, 21.04. 18:50 61% -
So, 21.04. 18:40 61% -
So, 21.04. 18:30 57% >70 km
So, 21.04. 18:00 59% 60 km
So, 21.04. 17:30 59% >70 km
So, 21.04. 17:00 55% 60 km
So, 21.04. 16:30 59% >70 km
Ortszeit Niederschlagsmenge Niederschlagsart
So, 21.04. 14:00 0.0 l/m2 in 6 Std. -
So, 21.04. 8:00 0.0 l/m2 in 12 Std. -
So, 21.04. 2:00 0.0 l/m2 in 6 Std. -
Sa, 20.04. 20:00 6 l/m2 in 12 Std. Regen
Sa, 20.04. 14:00 6 l/m2 in 6 Std. Regen
Sa, 20.04. 8:00 2 l/m2 in 12 Std. Regen
Sa, 20.04. 2:00 0.2 l/m2 in 6 Std. Regen
Fr, 19.04. 20:00 1 l/m2 in 12 Std. Regen
Ortszeit Niederschlagsmenge Niederschlagsart
So, 21.04. 19:30 0.0 l/m2 in 30 Min -
So, 21.04. 19:20 keine Meldung -
So, 21.04. 19:10 keine Meldung -
So, 21.04. 19:00 0.0 l/m2 in 1 Std. -
So, 21.04. 18:50 keine Meldung -
So, 21.04. 18:40 keine Meldung -
So, 21.04. 18:30 0.0 l/m2 in 30 Min -
So, 21.04. 18:00 0.0 l/m2 in 1 Std. -
So, 21.04. 17:30 0.0 l/m2 in 30 Min -
So, 21.04. 17:00 0.0 l/m2 in 1 Std. -
So, 21.04. 16:30 0.0 l/m2 in 30 Min -
Ortszeit Stärke Spitze Richtung
km/h Bft. km/h Grad Sektor
So, 21.04. 14:00 18 3 36 30° NO
So, 21.04. 8:00 7 2 11 40° NO
So, 21.04. 2:00 4 1 11 280° W
Sa, 20.04. 20:00 6 1 44 290° W
Sa, 20.04. 14:00 22 4 43 340° N
Sa, 20.04. 8:00 7 2 19 310° NW
Sa, 20.04. 2:00 14 3 29 260° W
Fr, 19.04. 20:00 18 3 47 230° SW
Ortszeit Stärke Spitze Richtung
km/h Bft. km/h Grad Sektor
So, 21.04. 19:30 7 2 18 30° NO
So, 21.04. 19:20 7 2 - 30° NO
So, 21.04. 19:10 11 2 - 40° NO
So, 21.04. 19:00 11 2 25 50° NO
So, 21.04. 18:50 11 2 - 50° NO
So, 21.04. 18:40 11 2 - 50° NO
So, 21.04. 18:30 17 3 26 50° NO
So, 21.04. 18:00 18 3 32 20° N
So, 21.04. 17:30 17 3 31 30° NO
So, 21.04. 17:00 14 3 29 40° NO
So, 21.04. 16:30 14 3 29 50° NO
Ortszeit Untergrenze Bedeckung Gattung
total tief tief mittel hoch
So, 21.04. 14:00 1080 m 8/8 8/8 - - -
So, 21.04. 8:00 1320 m 8/8 8/8 - - -
So, 21.04. 2:00 2100 m 8/8 3/8 - - -
Sa, 20.04. 20:00 1050 m 8/8 8/8 - - -
Sa, 20.04. 14:00 270 m 7/8 7/8 - - -
Sa, 20.04. 8:00 150 m 7/8 7/8 - - -
Sa, 20.04. 2:00 390 m 8/8 8/8 - - -
Fr, 19.04. 20:00 1500 m 8/8 5/8 - - -
Ortszeit Bedeckungsgrad in Achtel und Wolkenuntergrenze
So, 21.04. 19:30 6(1800m)
So, 21.04. 19:20 6(1800m)
So, 21.04. 19:10 5
So, 21.04. 19:00 4(1470m) 7(1500m)
So, 21.04. 18:50 4(1470m) 7(1500m)
So, 21.04. 18:40 8
So, 21.04. 18:30 6(1320m) 8(1500m)
So, 21.04. 18:00 7(1500m)
So, 21.04. 17:30 7(1500m)
So, 21.04. 17:00 1(1350m) 8(1500m)
So, 21.04. 16:30 6(1290m) 8(1500m)
Ortszeit Luftdruck NN (hPa) Tendenz (hPa in 3 Std.)
So, 21.04. 14:00 1022 + 0,2
So, 21.04. 8:00 1021 + 0,9
So, 21.04. 2:00 1021 + 0,2
Sa, 20.04. 20:00 1019 + 1,4
Sa, 20.04. 14:00 1015 + 3,9
Sa, 20.04. 8:00 1007 + 2,1
Sa, 20.04. 2:00 1004 + 0,6
Fr, 19.04. 20:00 1003 - 0,7
Ortszeit Luftdruck NN (hPa) Tendenz (hPa in 3 Std.)
So, 21.04. 19:30 1022 + 0,3
So, 21.04. 19:20 1022 keine Meldung
So, 21.04. 19:10 1022 keine Meldung
So, 21.04. 19:00 1022 + 0,1
So, 21.04. 18:50 1022 keine Meldung
So, 21.04. 18:40 1022 keine Meldung
So, 21.04. 18:30 1022 + 0,1
So, 21.04. 18:00 1022 0,0
So, 21.04. 17:30 1022 - 0,1
So, 21.04. 17:00 1022 - 0,2
So, 21.04. 16:30 1022 0,0
Ortszeit Schneehöhe (cm)
So, 21.04. 14:00 0
So, 21.04. 8:00 0
So, 21.04. 2:00 0
Sa, 20.04. 20:00 0
Sa, 20.04. 14:00 0
Sa, 20.04. 8:00 0
Sa, 20.04. 2:00 0
Fr, 19.04. 20:00 0
Ortszeit Schneehöhe (cm)
So, 21.04. 19:30 0
So, 21.04. 19:20 0
So, 21.04. 19:10 -
So, 21.04. 19:00 0
So, 21.04. 18:50 0
So, 21.04. 18:40 -
So, 21.04. 18:30 0
So, 21.04. 18:00 0
So, 21.04. 17:30 0
So, 21.04. 17:00 0
So, 21.04. 16:30 0
Link zu dieser Seite / Seite empfehlen

Das Wetter in ...